createdAt,value
2023-07-29T00:00:25.924Z,1.58
2023-07-29T00:01:29.459Z,1.38
2023-07-29T00:02:33.884Z,2.13
2023-07-29T00:03:37.552Z,1.85
2023-07-29T00:04:41.092Z,1.10
2023-07-29T00:05:44.684Z,1.88
2023-07-29T00:06:48.195Z,2.13
2023-07-29T00:07:51.637Z,1.80
2023-07-29T00:08:55.456Z,2.47
2023-07-29T00:09:59.801Z,1.77
2023-07-29T00:11:03.445Z,1.98
2023-07-29T00:12:07.097Z,1.80
2023-07-29T00:13:12.044Z,1.98
2023-07-29T00:14:15.807Z,2.00
2023-07-29T00:15:19.331Z,1.58
2023-07-29T00:16:23.663Z,1.35
2023-07-29T00:17:27.496Z,2.15
2023-07-29T00:18:31.018Z,1.80
2023-07-29T00:19:35.150Z,1.42
2023-07-29T00:20:38.565Z,2.75
2023-07-29T00:21:42.633Z,2.35
2023-07-29T00:22:46.158Z,1.70
2023-07-29T00:23:49.799Z,1.38
2023-07-29T00:24:58.705Z,2.38
2023-07-29T00:26:02.330Z,2.90
2023-07-29T00:27:05.875Z,2.22
2023-07-29T00:28:09.482Z,1.98
2023-07-29T00:29:12.975Z,1.27
2023-07-29T00:30:16.705Z,1.30
2023-07-29T00:31:20.505Z,1.65
2023-07-29T00:32:24.075Z,1.55
2023-07-29T00:33:27.619Z,2.10
2023-07-29T00:34:32.187Z,1.60
2023-07-29T00:35:36.816Z,2.40
2023-07-29T00:36:40.368Z,1.83
2023-07-29T00:37:43.862Z,1.20
2023-07-29T00:38:48.955Z,2.13
2023-07-29T00:39:52.593Z,1.48
2023-07-29T00:40:58.431Z,2.13
2023-07-29T00:42:01.928Z,1.80
2023-07-29T00:43:05.757Z,1.60
2023-07-29T00:44:09.605Z,2.47
2023-07-29T00:45:14.029Z,2.40
2023-07-29T00:46:18.766Z,2.05
2023-07-29T00:47:23.846Z,2.05
2023-07-29T00:48:28.118Z,2.42
2023-07-29T00:49:33.908Z,1.60
2023-07-29T00:50:37.450Z,1.45
2023-07-29T00:51:41.104Z,1.65
2023-07-29T00:52:44.633Z,1.67
2023-07-29T00:53:48.280Z,1.20
2023-07-29T00:54:51.912Z,3.70
2023-07-29T00:55:57.058Z,1.63
2023-07-29T00:57:00.556Z,1.30
2023-07-29T00:58:04.678Z,1.85
2023-07-29T00:59:10.219Z,1.70
2023-07-29T01:00:14.209Z,1.42
2023-07-29T01:01:19.509Z,1.75
2023-07-29T01:02:23.330Z,2.30
2023-07-29T01:03:27.394Z,1.88
2023-07-29T01:04:32.923Z,1.83
2023-07-29T01:06:09.063Z,2.20
2023-07-29T01:07:27.453Z,1.65
2023-07-29T01:08:48.477Z,1.50
2023-07-29T01:10:05.588Z,2.17
2023-07-29T01:11:16.345Z,1.52
2023-07-29T01:12:34.916Z,1.45
2023-07-29T01:13:51.439Z,1.30
2023-07-29T01:15:20.560Z,1.67
2023-07-29T01:16:34.950Z,1.13
2023-07-29T01:17:46.405Z,1.52
2023-07-29T01:18:53.639Z,1.50
2023-07-29T01:20:16.754Z,2.35
2023-07-29T01:21:21.856Z,2.42
2023-07-29T01:22:26.146Z,1.55
2023-07-29T01:23:33.602Z,2.53
2023-07-29T01:24:37.619Z,1.77
2023-07-29T01:25:41.366Z,1.45
2023-07-29T01:26:45.003Z,1.40
2023-07-29T01:27:52.982Z,1.27
2023-07-29T01:28:58.442Z,2.05
2023-07-29T01:30:04.338Z,1.70
2023-07-29T01:31:46.648Z,1.77
2023-07-29T01:33:19.562Z,1.80
2023-07-29T01:34:36.258Z,2.17
2023-07-29T01:35:52.868Z,1.10
2023-07-29T01:37:02.662Z,1.75
2023-07-29T01:38:15.051Z,2.05
2023-07-29T01:39:20.133Z,2.42
2023-07-29T01:40:28.033Z,1.67
2023-07-29T01:41:32.546Z,1.40
2023-07-29T01:42:36.464Z,3.28
2023-07-29T01:43:45.401Z,1.73
2023-07-29T01:44:49.388Z,1.60
2023-07-29T01:45:53.436Z,2.60
2023-07-29T01:46:58.105Z,3.33
2023-07-29T01:48:01.680Z,1.85
2023-07-29T01:49:05.145Z,2.13
2023-07-29T01:50:09.814Z,2.28
2023-07-29T01:51:14.366Z,2.08
2023-07-29T01:52:18.134Z,2.08
2023-07-29T01:53:21.920Z,3.08
2023-07-29T01:54:25.439Z,2.25
2023-07-29T01:55:29.117Z,2.13
2023-07-29T01:56:32.988Z,1.80
2023-07-29T01:57:36.674Z,1.63
2023-07-29T01:58:40.351Z,1.90
2023-07-29T01:59:43.920Z,1.70
2023-07-29T02:00:47.667Z,1.52
2023-07-29T02:01:51.273Z,2.58
2023-07-29T02:02:54.946Z,2.88
2023-07-29T02:03:58.553Z,1.60
2023-07-29T02:05:02.300Z,1.45
2023-07-29T02:06:05.789Z,1.48
2023-07-29T02:07:09.453Z,1.50
2023-07-29T02:08:13.050Z,1.63
2023-07-29T02:09:16.908Z,1.80
2023-07-29T02:10:20.416Z,2.17
2023-07-29T02:11:29.006Z,2.60
2023-07-29T02:12:33.239Z,1.67
2023-07-29T02:13:36.898Z,1.65
2023-07-29T02:14:40.505Z,2.17
2023-07-29T02:15:44.359Z,1.90
2023-07-29T02:16:47.989Z,1.50
2023-07-29T02:18:11.638Z,1.30
2023-07-29T02:19:15.096Z,2.03
2023-07-29T02:20:18.569Z,2.05
2023-07-29T02:21:22.131Z,3.33
2023-07-29T02:22:25.694Z,2.80
2023-07-29T02:23:29.437Z,1.80
2023-07-29T02:24:32.908Z,2.20
2023-07-29T02:25:39.269Z,1.58
2023-07-29T02:26:43.237Z,1.88
2023-07-29T02:27:46.980Z,1.77
2023-07-29T02:28:51.556Z,2.67
2023-07-29T02:29:55.641Z,2.00
2023-07-29T02:31:12.286Z,1.63
2023-07-29T02:32:16.198Z,1.65
2023-07-29T02:33:19.930Z,1.30
2023-07-29T02:34:23.922Z,2.30
2023-07-29T02:35:27.545Z,2.30
2023-07-29T02:36:31.400Z,1.63
2023-07-29T02:37:35.422Z,2.65
2023-07-29T02:38:39.031Z,1.70
2023-07-29T02:39:42.664Z,1.83
2023-07-29T02:40:46.229Z,2.63
2023-07-29T02:41:49.615Z,1.63
2023-07-29T02:42:54.002Z,2.45
2023-07-29T02:43:57.429Z,1.73
2023-07-29T02:45:01.037Z,1.85
2023-07-29T02:46:04.784Z,1.80
2023-07-29T02:47:08.368Z,2.33
2023-07-29T02:48:12.093Z,1.38
2023-07-29T02:49:15.686Z,2.03
2023-07-29T02:50:19.214Z,2.30
2023-07-29T02:51:22.782Z,2.60
2023-07-29T02:52:26.257Z,2.15
2023-07-29T02:53:29.953Z,1.95
2023-07-29T02:54:33.746Z,1.88
2023-07-29T02:55:40.717Z,1.92
2023-07-29T02:56:49.520Z,2.10
2023-07-29T02:57:53.197Z,1.52
2023-07-29T02:58:56.712Z,3.15
2023-07-29T03:00:08.552Z,2.08
2023-07-29T03:01:12.499Z,2.22
2023-07-29T03:02:17.597Z,1.50
2023-07-29T03:03:21.272Z,1.83
2023-07-29T03:04:24.933Z,1.63
2023-07-29T03:05:31.394Z,1.75
2023-07-29T03:06:39.062Z,2.03
2023-07-29T03:07:42.645Z,2.30
2023-07-29T03:08:46.598Z,3.60
2023-07-29T03:09:50.105Z,1.60
2023-07-29T03:10:53.798Z,3.20
2023-07-29T03:11:58.287Z,2.50
2023-07-29T03:13:01.973Z,2.30
2023-07-29T03:14:05.429Z,1.77
2023-07-29T03:15:09.388Z,1.88
2023-07-29T03:16:17.451Z,1.70
2023-07-29T03:17:28.563Z,2.10
2023-07-29T03:18:32.069Z,2.28
2023-07-29T03:19:35.589Z,2.55
2023-07-29T03:20:39.025Z,2.08
2023-07-29T03:21:42.684Z,3.13
2023-07-29T03:22:47.082Z,3.15
2023-07-29T03:23:50.935Z,2.13
2023-07-29T03:24:54.420Z,2.58
2023-07-29T03:25:59.901Z,2.45
2023-07-29T03:27:03.374Z,1.90
2023-07-29T03:28:07.134Z,2.20
2023-07-29T03:29:10.638Z,2.20
2023-07-29T03:30:14.216Z,1.42
2023-07-29T03:31:17.777Z,1.38
2023-07-29T03:32:22.625Z,3.65
2023-07-29T03:33:27.468Z,2.28
2023-07-29T03:34:31.293Z,1.77
2023-07-29T03:35:34.882Z,2.13
2023-07-29T03:36:38.703Z,2.10
2023-07-29T03:37:42.700Z,2.45
2023-07-29T03:38:46.635Z,2.05
2023-07-29T03:39:50.443Z,1.80
2023-07-29T03:40:54.839Z,1.92
2023-07-29T03:41:58.499Z,2.58
2023-07-29T03:43:02.101Z,2.40
2023-07-29T03:44:05.742Z,2.90
2023-07-29T03:45:09.958Z,3.25
2023-07-29T03:46:15.029Z,3.20
2023-07-29T03:47:19.134Z,1.52
2023-07-29T03:48:23.629Z,2.00
2023-07-29T03:49:27.267Z,1.63
2023-07-29T03:50:31.125Z,3.00
2023-07-29T03:51:35.304Z,2.00
2023-07-29T03:52:38.744Z,2.70
2023-07-29T03:53:42.411Z,1.80
2023-07-29T03:54:45.939Z,2.08
2023-07-29T03:55:51.413Z,1.98
2023-07-29T03:56:54.954Z,2.60
2023-07-29T03:58:00.337Z,2.45
2023-07-29T03:59:08.145Z,2.35
2023-07-29T04:00:12.183Z,2.60
2023-07-29T04:01:25.338Z,2.55
2023-07-29T04:02:28.958Z,3.15
2023-07-29T04:03:32.629Z,1.92
2023-07-29T04:04:36.362Z,2.22
2023-07-29T04:05:39.971Z,2.60
2023-07-29T04:06:43.737Z,2.80
2023-07-29T04:07:47.578Z,2.40
2023-07-29T04:08:51.421Z,2.35
2023-07-29T04:09:55.038Z,1.95
2023-07-29T04:10:58.972Z,2.35
2023-07-29T04:12:03.533Z,3.78
2023-07-29T04:13:07.197Z,3.15
2023-07-29T04:14:10.718Z,2.13
2023-07-29T04:15:14.444Z,1.70
2023-07-29T04:16:18.251Z,2.78
2023-07-29T04:17:22.075Z,2.08
2023-07-29T04:18:25.592Z,2.97
2023-07-29T04:19:29.324Z,2.63
2023-07-29T04:20:32.862Z,2.58
2023-07-29T04:21:37.461Z,1.70
2023-07-29T04:22:40.981Z,2.10
2023-07-29T04:23:44.804Z,2.53
2023-07-29T04:24:48.496Z,3.05
2023-07-29T04:25:53.177Z,2.35
2023-07-29T04:26:56.649Z,2.28
2023-07-29T04:28:00.274Z,2.47
2023-07-29T04:29:03.906Z,3.53
2023-07-29T04:30:07.950Z,2.38
2023-07-29T04:31:11.514Z,2.53
2023-07-29T04:32:15.344Z,2.22
2023-07-29T04:33:20.265Z,3.45
2023-07-29T04:34:24.005Z,3.90
2023-07-29T04:35:27.479Z,2.00
2023-07-29T04:36:31.128Z,3.13
2023-07-29T04:37:34.548Z,3.35
2023-07-29T04:38:39.421Z,6.47
2023-07-29T04:39:42.972Z,2.83
2023-07-29T04:40:46.706Z,2.42
2023-07-29T04:41:51.019Z,2.80
2023-07-29T04:42:54.701Z,2.35
2023-07-29T04:43:58.201Z,3.75
2023-07-29T04:45:01.903Z,2.42
2023-07-29T04:46:12.005Z,1.98
2023-07-29T04:47:16.199Z,3.80
2023-07-29T04:48:19.714Z,2.85
2023-07-29T04:49:23.316Z,3.47
2023-07-29T04:50:29.195Z,2.08
2023-07-29T04:51:33.899Z,2.90
2023-07-29T04:52:37.882Z,2.97
2023-07-29T04:53:41.423Z,3.05
2023-07-29T04:54:44.926Z,2.65
2023-07-29T04:55:48.623Z,3.28
2023-07-29T04:56:52.313Z,2.13
2023-07-29T04:57:55.882Z,2.80
2023-07-29T04:58:59.422Z,2.70
2023-07-29T05:00:04.554Z,3.58
2023-07-29T05:01:08.564Z,3.47
2023-07-29T05:02:12.673Z,2.60
2023-07-29T05:03:16.177Z,2.05
2023-07-29T05:04:19.930Z,2.08
2023-07-29T05:05:23.418Z,2.45
2023-07-29T05:06:27.494Z,2.80
2023-07-29T05:07:30.962Z,1.95
2023-07-29T05:08:34.557Z,2.67
2023-07-29T05:09:38.091Z,1.90
2023-07-29T05:10:41.698Z,2.78
2023-07-29T05:11:50.390Z,2.03
2023-07-29T05:12:54.031Z,2.90
2023-07-29T05:13:57.508Z,2.85
2023-07-29T05:15:01.546Z,2.13
2023-07-29T05:16:05.354Z,2.28
2023-07-29T05:17:10.396Z,2.75
2023-07-29T05:18:13.931Z,2.42
2023-07-29T05:19:17.548Z,2.22
2023-07-29T05:20:21.169Z,1.90
2023-07-29T05:21:24.782Z,2.25
2023-07-29T05:22:28.387Z,2.53
2023-07-29T05:23:32.121Z,2.78
2023-07-29T05:24:35.748Z,2.20
2023-07-29T05:25:39.463Z,2.70
2023-07-29T05:26:42.898Z,1.85
2023-07-29T05:27:46.446Z,3.03
2023-07-29T05:28:50.120Z,2.47
2023-07-29T05:29:53.628Z,1.50
2023-07-29T05:30:57.404Z,2.60
2023-07-29T05:32:01.052Z,2.78
2023-07-29T05:33:06.054Z,2.05
2023-07-29T05:34:10.307Z,3.38
2023-07-29T05:35:13.949Z,2.33
2023-07-29T05:36:17.549Z,2.42
2023-07-29T05:37:21.001Z,2.13
2023-07-29T05:38:27.722Z,2.70
2023-07-29T05:39:33.579Z,2.10
2023-07-29T05:40:37.373Z,2.33
2023-07-29T05:41:40.873Z,1.80
2023-07-29T05:42:46.490Z,3.60
2023-07-29T05:43:49.941Z,3.42
2023-07-29T05:44:53.614Z,1.73
2023-07-29T05:45:57.608Z,1.92
2023-07-29T05:47:01.297Z,1.48
2023-07-29T05:48:05.750Z,2.55
2023-07-29T05:49:09.378Z,1.55
2023-07-29T05:50:12.968Z,1.70
2023-07-29T05:51:17.373Z,2.50
2023-07-29T05:52:21.184Z,1.58
2023-07-29T05:53:24.840Z,2.78
2023-07-29T05:54:28.443Z,1.77
2023-07-29T05:55:32.136Z,1.75
2023-07-29T05:56:35.939Z,1.92
2023-07-29T05:57:41.692Z,2.30
2023-07-29T05:58:46.567Z,1.77
2023-07-29T05:59:50.260Z,2.20
2023-07-29T06:00:53.881Z,1.45
2023-07-29T06:01:57.972Z,1.67
2023-07-29T06:03:01.510Z,1.58
2023-07-29T06:04:05.478Z,1.50
2023-07-29T06:05:09.264Z,1.45
2023-07-29T06:06:13.691Z,1.77
2023-07-29T06:07:17.264Z,2.50
2023-07-29T06:08:21.048Z,1.70
2023-07-29T06:09:24.823Z,2.17
2023-07-29T06:10:28.629Z,2.50
2023-07-29T06:11:32.240Z,2.30
2023-07-29T06:12:35.843Z,2.50
2023-07-29T06:13:39.599Z,2.20
2023-07-29T06:14:43.271Z,2.33
2023-07-29T06:15:46.756Z,1.58
2023-07-29T06:16:50.694Z,2.08
2023-07-29T06:17:57.140Z,1.77
2023-07-29T06:19:01.283Z,2.17
2023-07-29T06:20:05.196Z,1.33
2023-07-29T06:21:09.345Z,2.28
2023-07-29T06:22:13.047Z,1.88
2023-07-29T06:23:16.928Z,1.70
2023-07-29T06:24:20.464Z,2.75
2023-07-29T06:25:24.112Z,2.10
2023-07-29T06:26:28.888Z,1.40
2023-07-29T06:27:32.515Z,1.80
2023-07-29T06:28:36.088Z,1.40
2023-07-29T06:29:39.718Z,1.83
2023-07-29T06:30:43.194Z,1.70
2023-07-29T06:31:46.770Z,1.83
2023-07-29T06:32:50.341Z,2.05
2023-07-29T06:33:53.973Z,1.67
2023-07-29T06:34:57.540Z,2.30
2023-07-29T06:36:01.264Z,1.55
2023-07-29T06:37:04.927Z,1.60
2023-07-29T06:38:08.972Z,1.65
2023-07-29T06:39:12.564Z,2.38
2023-07-29T06:40:16.362Z,2.70
2023-07-29T06:41:20.812Z,2.22
2023-07-29T06:42:24.654Z,1.77
2023-07-29T06:43:28.283Z,1.52
2023-07-29T06:44:32.006Z,1.27
2023-07-29T06:45:35.512Z,1.50
2023-07-29T06:46:39.510Z,1.67
2023-07-29T06:47:43.193Z,1.65
2023-07-29T06:48:46.894Z,1.52
2023-07-29T06:49:50.451Z,1.90
2023-07-29T06:50:54.147Z,1.52
2023-07-29T06:51:57.662Z,1.75
2023-07-29T06:53:01.292Z,1.33
2023-07-29T06:54:05.097Z,1.35
2023-07-29T06:55:09.365Z,1.58
2023-07-29T06:56:12.952Z,1.48
2023-07-29T06:57:17.404Z,1.45
2023-07-29T06:58:21.424Z,1.80
2023-07-29T06:59:26.139Z,1.70
2023-07-29T07:00:29.736Z,1.77
2023-07-29T07:01:33.446Z,2.08
2023-07-29T07:02:37.375Z,1.52
2023-07-29T07:03:41.131Z,1.55
2023-07-29T07:04:44.754Z,1.50
2023-07-29T07:05:48.344Z,1.40
2023-07-29T07:06:51.828Z,2.15
2023-07-29T07:07:55.556Z,1.98
2023-07-29T07:09:04.484Z,3.28
2023-07-29T07:10:08.537Z,1.63
2023-07-29T07:11:12.063Z,1.98
2023-07-29T07:12:17.500Z,1.58
2023-07-29T07:13:20.965Z,1.98
2023-07-29T07:14:24.564Z,1.75
2023-07-29T07:15:28.181Z,1.42
2023-07-29T07:16:32.350Z,1.23
2023-07-29T07:17:35.999Z,2.92
2023-07-29T07:18:39.831Z,1.27
2023-07-29T07:19:48.722Z,1.17
2023-07-29T07:20:53.229Z,1.95
2023-07-29T07:21:56.684Z,2.58
2023-07-29T07:23:00.510Z,2.30
2023-07-29T07:24:04.225Z,3.22
2023-07-29T07:25:09.118Z,2.42
2023-07-29T07:26:12.604Z,5.35
2023-07-29T07:27:16.229Z,3.90
2023-07-29T07:28:19.794Z,3.83
2023-07-29T07:29:23.473Z,4.30
2023-07-29T07:30:27.067Z,4.00
2023-07-29T07:31:34.656Z,3.97
2023-07-29T07:32:38.593Z,4.70
2023-07-29T07:33:42.357Z,2.88
2023-07-29T07:34:51.131Z,5.20
2023-07-29T07:35:54.770Z,4.20
2023-07-29T07:36:59.086Z,3.65
2023-07-29T07:38:05.381Z,5.45
2023-07-29T07:39:08.876Z,6.38
2023-07-29T07:40:12.690Z,4.20
2023-07-29T07:41:16.307Z,5.13
2023-07-29T07:42:20.080Z,5.07
2023-07-29T07:43:24.348Z,3.90
2023-07-29T07:44:28.093Z,4.10
2023-07-29T07:45:33.301Z,4.43
2023-07-29T07:46:37.089Z,3.22
2023-07-29T07:47:41.023Z,5.00
2023-07-29T07:48:44.768Z,4.78
2023-07-29T07:49:50.660Z,3.65
2023-07-29T07:50:54.625Z,5.35
2023-07-29T07:51:58.245Z,7.82
2023-07-29T07:53:01.808Z,5.40
2023-07-29T07:54:05.426Z,4.93
2023-07-29T07:55:09.778Z,6.53
2023-07-29T07:56:13.368Z,4.97
2023-07-29T07:57:17.058Z,5.35
2023-07-29T07:58:20.653Z,5.65
2023-07-29T07:59:24.317Z,4.28
2023-07-29T08:00:29.408Z,5.15
2023-07-29T08:01:37.646Z,6.05
2023-07-29T08:02:41.283Z,5.47
2023-07-29T08:03:44.962Z,5.20
2023-07-29T08:04:48.523Z,5.22
2023-07-29T08:05:52.186Z,5.53
2023-07-29T08:06:55.651Z,5.53
2023-07-29T08:07:59.371Z,7.70
2023-07-29T08:09:03.149Z,7.00
2023-07-29T08:10:08.291Z,6.13
2023-07-29T08:11:12.074Z,6.75
2023-07-29T08:12:17.739Z,7.45
2023-07-29T08:13:24.273Z,7.70
2023-07-29T08:14:28.386Z,6.65
2023-07-29T08:15:31.861Z,7.85
2023-07-29T08:16:35.706Z,7.18
2023-07-29T08:17:39.611Z,5.70
2023-07-29T08:18:43.368Z,6.10
2023-07-29T08:19:46.904Z,5.32
2023-07-29T08:21:04.458Z,5.20
2023-07-29T08:22:07.989Z,4.65
2023-07-29T08:23:11.552Z,6.05
2023-07-29T08:24:15.218Z,5.35
2023-07-29T08:25:18.905Z,5.03
2023-07-29T08:26:22.812Z,6.75
2023-07-29T08:27:26.414Z,4.63
2023-07-29T08:28:35.397Z,6.53
2023-07-29T08:29:39.816Z,4.43
2023-07-29T08:30:43.387Z,6.30
2023-07-29T08:31:47.188Z,3.88
2023-07-29T08:32:51.679Z,5.00
2023-07-29T08:33:55.464Z,5.55
2023-07-29T08:34:59.206Z,4.30
2023-07-29T08:36:04.153Z,5.20
2023-07-29T08:37:07.810Z,4.63
2023-07-29T08:38:11.728Z,4.05
2023-07-29T08:39:15.257Z,4.05
2023-07-29T08:40:18.990Z,4.97
2023-07-29T08:41:36.685Z,4.38
2023-07-29T08:42:48.208Z,5.22
2023-07-29T08:44:20.079Z,4.47
2023-07-29T08:45:25.804Z,3.55
2023-07-29T08:46:30.516Z,3.95
2023-07-29T08:47:34.588Z,7.55
2023-07-29T08:48:43.014Z,3.40
2023-07-29T08:49:47.855Z,3.58
2023-07-29T08:50:57.664Z,3.05
2023-07-29T08:52:02.817Z,3.88
2023-07-29T08:53:08.996Z,3.33
2023-07-29T08:54:13.139Z,3.58
2023-07-29T08:55:16.731Z,3.35
2023-07-29T08:56:20.627Z,5.50
2023-07-29T08:57:30.400Z,4.60
2023-07-29T08:58:34.980Z,2.90
2023-07-29T08:59:39.538Z,4.22
2023-07-29T09:00:44.004Z,3.20
2023-07-29T09:01:49.466Z,3.50
2023-07-29T09:02:53.574Z,3.53
2023-07-29T09:03:57.315Z,4.45
2023-07-29T09:05:01.212Z,7.18
2023-07-29T09:06:05.471Z,4.18
2023-07-29T09:07:09.684Z,5.57
2023-07-29T09:08:13.954Z,4.13
2023-07-29T09:15:50.706Z,4.50
2023-07-29T09:16:55.031Z,5.97
2023-07-29T09:18:02.012Z,5.18
2023-07-29T09:19:06.897Z,6.25
2023-07-29T09:20:11.725Z,4.65
2023-07-29T09:21:28.320Z,6.68
2023-07-29T09:22:32.361Z,6.70
2023-07-29T09:23:43.629Z,5.38
2023-07-29T09:24:48.078Z,9.73
2023-07-29T09:25:52.210Z,3.53
2023-07-29T09:26:56.912Z,9.15
2023-07-29T09:28:02.244Z,6.03
2023-07-29T09:29:05.879Z,5.53
2023-07-29T09:30:17.884Z,5.88
2023-07-29T09:31:26.252Z,7.50
2023-07-29T09:32:29.947Z,4.18
2023-07-29T09:33:40.855Z,5.60
2023-07-29T09:34:44.593Z,3.83
2023-07-29T09:35:48.802Z,6.97
2023-07-29T09:36:53.065Z,5.45
2023-07-29T09:37:56.631Z,5.07
2023-07-29T09:39:00.877Z,6.15
2023-07-29T09:40:16.663Z,4.45
2023-07-29T09:41:20.317Z,5.82
2023-07-29T09:42:24.871Z,4.72
2023-07-29T09:43:33.072Z,5.70
2023-07-29T09:44:38.264Z,5.88
2023-07-29T09:45:41.996Z,5.15
2023-07-29T09:46:47.899Z,5.93
2023-07-29T09:47:52.226Z,6.40
2023-07-29T09:48:57.312Z,6.30
2023-07-29T09:50:01.619Z,5.63
2023-07-29T09:51:15.094Z,4.43
2023-07-29T09:52:24.193Z,5.25
2023-07-29T09:53:28.181Z,5.05
2023-07-29T09:54:32.826Z,5.13
2023-07-29T09:55:47.257Z,6.53
2023-07-29T09:56:50.862Z,5.85
2023-07-29T09:58:03.570Z,7.40
2023-07-29T09:59:07.301Z,4.68
2023-07-29T10:00:13.511Z,4.95
2023-07-29T10:01:18.021Z,4.60
2023-07-29T10:02:22.866Z,3.97
2023-07-29T10:03:27.505Z,4.22
2023-07-29T10:04:32.646Z,4.07
2023-07-29T10:05:37.122Z,5.50
2023-07-29T10:06:42.793Z,4.85
2023-07-29T10:07:52.512Z,5.28
2023-07-29T10:08:57.494Z,4.53
2023-07-29T10:10:02.272Z,4.13
2023-07-29T10:11:10.026Z,4.47
2023-07-29T10:12:17.631Z,4.93
2023-07-29T10:13:22.748Z,3.50
2023-07-29T10:14:29.749Z,4.63
2023-07-29T10:15:34.372Z,6.10
2023-07-29T10:16:39.576Z,5.55
2023-07-29T10:17:43.381Z,3.10
2023-07-29T10:18:47.218Z,5.30
2023-07-29T10:19:51.325Z,5.85
2023-07-29T10:20:57.895Z,3.38
2023-07-29T10:22:03.091Z,3.42
2023-07-29T10:23:09.956Z,4.68
2023-07-29T10:24:20.001Z,5.88
2023-07-29T10:25:26.092Z,4.32
2023-07-29T10:26:31.909Z,5.90
2023-07-29T10:27:47.708Z,3.72
2023-07-29T10:29:06.256Z,3.67
2023-07-29T10:30:14.640Z,4.63
2023-07-29T10:31:19.037Z,4.60
2023-07-29T10:32:26.467Z,3.45
2023-07-29T10:33:36.320Z,3.60
2023-07-29T10:34:41.335Z,4.13
2023-07-29T10:35:45.413Z,5.80
2023-07-29T10:36:50.476Z,4.55
2023-07-29T10:37:54.722Z,3.95
2023-07-29T10:39:04.077Z,3.53
2023-07-29T10:40:10.310Z,3.88
2023-07-29T10:41:14.181Z,4.05
2023-07-29T10:42:17.899Z,5.43
2023-07-29T10:43:32.922Z,4.32
2023-07-29T10:44:44.932Z,4.03
2023-07-29T10:45:52.172Z,2.70
2023-07-29T10:47:22.140Z,3.58
2023-07-29T10:48:36.233Z,5.18
2023-07-29T10:49:42.711Z,3.47
2023-07-29T10:50:46.358Z,3.95
2023-07-29T10:51:53.042Z,3.97
2023-07-29T10:52:58.195Z,3.97
2023-07-29T10:54:05.607Z,5.53
2023-07-29T10:55:25.235Z,3.53
2023-07-29T10:56:33.186Z,2.92
2023-07-29T10:57:42.700Z,3.38
2023-07-29T10:58:46.271Z,3.78
2023-07-29T10:59:59.921Z,4.55
2023-07-29T11:01:14.588Z,3.30
2023-07-29T11:02:20.670Z,3.50
2023-07-29T11:03:25.613Z,3.58
2023-07-29T11:04:32.519Z,3.85
2023-07-29T11:06:08.084Z,3.42
2023-07-29T11:07:14.460Z,4.13
2023-07-29T11:08:46.248Z,4.07
2023-07-29T11:09:49.975Z,3.63
2023-07-29T11:11:05.253Z,3.33
2023-07-29T11:12:41.777Z,3.00
2023-07-29T11:13:46.051Z,2.20
2023-07-29T11:14:49.695Z,2.80
2023-07-29T11:15:55.043Z,3.17
2023-07-29T11:16:59.307Z,3.25
2023-07-29T11:18:03.700Z,3.35
2023-07-29T11:19:12.262Z,4.25
2023-07-29T11:20:17.781Z,2.72
2023-07-29T11:21:21.811Z,3.50
2023-07-29T11:22:27.116Z,3.15
2023-07-29T11:23:38.295Z,4.10
2023-07-29T11:24:45.150Z,3.83
2023-07-29T11:25:48.899Z,3.53
2023-07-29T11:26:52.626Z,4.07
2023-07-29T11:27:59.221Z,3.35
2023-07-29T11:29:03.484Z,3.00
2023-07-29T11:30:12.800Z,4.13
2023-07-29T11:31:19.096Z,4.35
2023-07-29T11:32:22.984Z,4.25
2023-07-29T11:33:29.752Z,3.92
2023-07-29T11:34:34.222Z,3.67
2023-07-29T11:35:38.001Z,2.28
2023-07-29T11:36:47.205Z,3.17
2023-07-29T11:37:52.163Z,3.05
2023-07-29T11:38:56.395Z,2.70
2023-07-29T11:40:00.368Z,3.58
2023-07-29T11:41:04.718Z,3.10
2023-07-29T11:42:12.240Z,2.42
2023-07-29T11:43:20.713Z,2.47
2023-07-29T11:44:24.432Z,2.88
2023-07-29T11:45:35.839Z,3.30
2023-07-29T11:46:55.960Z,2.50
2023-07-29T11:48:00.013Z,2.53
2023-07-29T11:49:03.676Z,2.50
2023-07-29T11:50:10.683Z,3.40
2023-07-29T11:52:21.615Z,3.15
2023-07-29T11:53:30.135Z,2.38
2023-07-29T11:54:34.788Z,2.55
2023-07-29T11:55:38.661Z,2.47
2023-07-29T11:56:42.569Z,2.17
2023-07-29T11:57:46.445Z,2.30
2023-07-29T11:58:50.801Z,2.28
2023-07-29T11:59:54.880Z,2.35
2023-07-29T12:00:58.509Z,2.65
2023-07-29T12:02:11.372Z,2.78
2023-07-29T12:04:18.883Z,2.28
2023-07-29T12:05:25.194Z,4.72
2023-07-29T12:06:32.575Z,2.65
2023-07-29T12:07:36.700Z,2.08
2023-07-29T12:08:40.312Z,3.10
2023-07-29T12:09:44.420Z,3.42
2023-07-29T12:10:48.815Z,2.13
2023-07-29T12:11:53.834Z,2.35
2023-07-29T12:12:57.508Z,2.33
2023-07-29T12:14:03.949Z,3.72
2023-07-29T12:15:08.411Z,2.22
2023-07-29T12:16:19.357Z,2.38
2023-07-29T12:17:24.287Z,2.95
2023-07-29T12:18:35.126Z,2.92
2023-07-29T12:19:40.277Z,2.88
2023-07-29T12:20:44.922Z,2.88
2023-07-29T12:21:48.620Z,2.00
2023-07-29T12:23:00.418Z,3.63
2023-07-29T12:24:05.018Z,2.50
2023-07-29T12:25:09.614Z,2.22
2023-07-29T12:26:13.105Z,3.47
2023-07-29T12:27:17.048Z,3.05
2023-07-29T12:28:24.291Z,4.40
2023-07-29T12:29:28.393Z,2.45
2023-07-29T12:30:31.929Z,2.38
2023-07-29T12:31:39.410Z,3.28
2023-07-29T12:32:47.515Z,2.17
2023-07-29T12:33:58.094Z,2.17
2023-07-29T12:35:01.724Z,2.38
2023-07-29T12:36:06.219Z,2.50
2023-07-29T12:37:09.867Z,3.08
2023-07-29T12:38:22.953Z,2.00
2023-07-29T12:39:31.869Z,2.63
2023-07-29T12:40:41.560Z,2.47
2023-07-29T12:41:45.495Z,3.42
2023-07-29T12:42:49.514Z,1.95
2023-07-29T12:43:53.238Z,3.13
2023-07-29T12:44:56.948Z,2.75
2023-07-29T12:46:00.622Z,3.13
2023-07-29T12:47:06.273Z,2.60
2023-07-29T12:48:10.534Z,2.45
2023-07-29T12:49:14.610Z,2.38
2023-07-29T12:50:18.169Z,2.50
2023-07-29T12:51:22.176Z,3.42
2023-07-29T12:52:25.812Z,3.05
2023-07-29T12:53:29.509Z,2.78
2023-07-29T12:54:33.119Z,2.28
2023-07-29T12:55:37.313Z,2.75
2023-07-29T12:56:41.010Z,2.47
2023-07-29T12:57:45.192Z,2.50
2023-07-29T12:58:48.769Z,3.88
2023-07-29T12:59:52.482Z,3.60
2023-07-29T13:00:57.241Z,2.50
2023-07-29T13:02:00.979Z,3.05
2023-07-29T13:03:07.214Z,4.55
2023-07-29T13:04:12.261Z,2.72
2023-07-29T13:05:15.721Z,2.53
2023-07-29T13:06:19.399Z,3.40
2023-07-29T13:07:23.121Z,2.97
2023-07-29T13:08:26.913Z,3.58
2023-07-29T13:09:30.487Z,2.75
2023-07-29T13:10:34.187Z,2.88
2023-07-29T13:11:37.734Z,2.58
2023-07-29T13:12:42.220Z,3.05
2023-07-29T13:13:46.960Z,2.50
2023-07-29T13:14:50.747Z,2.63
2023-07-29T13:15:54.425Z,2.65
2023-07-29T13:16:58.203Z,2.85
2023-07-29T13:18:01.879Z,2.30
2023-07-29T13:19:05.674Z,3.55
2023-07-29T13:20:10.038Z,2.90
2023-07-29T13:21:14.140Z,3.20
2023-07-29T13:22:18.001Z,2.75
2023-07-29T13:23:22.074Z,3.47
2023-07-29T13:24:25.594Z,2.72
2023-07-29T13:25:29.310Z,3.13
2023-07-29T13:26:32.927Z,2.42
2023-07-29T13:27:36.595Z,2.78
2023-07-29T13:28:40.143Z,3.40
2023-07-29T13:29:47.410Z,2.78
2023-07-29T13:30:51.367Z,2.28
2023-07-29T13:31:55.411Z,3.25
2023-07-29T13:32:59.025Z,2.50
2023-07-29T13:34:02.811Z,3.38
2023-07-29T13:35:06.539Z,2.78
2023-07-29T13:36:10.081Z,2.80
2023-07-29T13:37:13.606Z,2.60
2023-07-29T13:38:17.819Z,3.15
2023-07-29T13:39:21.368Z,2.50
2023-07-29T13:40:25.045Z,2.90
2023-07-29T13:41:28.605Z,2.53
2023-07-29T13:42:32.306Z,2.95
2023-07-29T13:43:35.837Z,3.15
2023-07-29T13:44:39.479Z,3.47
2023-07-29T13:45:43.005Z,3.08
2023-07-29T13:46:46.636Z,3.00
2023-07-29T13:47:51.706Z,3.08
2023-07-29T13:48:55.465Z,3.10
2023-07-29T13:49:59.112Z,2.97
2023-07-29T13:51:02.920Z,2.47
2023-07-29T13:52:06.610Z,2.67
2023-07-29T13:53:10.314Z,2.88
2023-07-29T13:54:13.953Z,3.05
2023-07-29T13:55:17.777Z,3.38
2023-07-29T13:56:21.295Z,3.10
2023-07-29T13:57:24.756Z,3.72
2023-07-29T13:58:28.516Z,2.80
2023-07-29T13:59:32.262Z,3.10
2023-07-29T14:00:35.954Z,2.85
2023-07-29T14:01:39.732Z,2.45
2023-07-29T14:02:45.010Z,2.15
2023-07-29T14:03:48.675Z,2.97
2023-07-29T14:04:52.196Z,3.90
2023-07-29T14:05:56.054Z,2.30
2023-07-29T14:07:00.108Z,2.00
2023-07-29T14:08:03.804Z,2.58
2023-07-29T14:09:07.357Z,2.47
2023-07-29T14:10:11.010Z,2.63
2023-07-29T14:11:14.556Z,2.90
2023-07-29T14:12:18.068Z,2.38
2023-07-29T14:13:22.253Z,2.58
2023-07-29T14:14:25.946Z,2.75
2023-07-29T14:15:29.992Z,2.95
2023-07-29T14:16:33.664Z,2.13
2023-07-29T14:17:37.142Z,2.90
2023-07-29T14:18:40.697Z,2.50
2023-07-29T14:19:44.238Z,2.60
2023-07-29T14:20:47.956Z,3.10
2023-07-29T14:21:51.559Z,3.58
2023-07-29T14:22:55.272Z,3.08
2023-07-29T14:23:58.780Z,2.17
2023-07-29T14:25:02.407Z,3.20
2023-07-29T14:26:06.854Z,2.75
2023-07-29T14:27:17.701Z,3.05
2023-07-29T14:28:21.384Z,2.90
2023-07-29T14:29:25.147Z,3.58
2023-07-29T14:30:28.726Z,2.40
2023-07-29T14:31:32.293Z,2.83
2023-07-29T14:32:36.043Z,3.10
2023-07-29T14:33:39.699Z,4.38
2023-07-29T14:34:43.226Z,4.00
2023-07-29T14:35:46.806Z,4.15
2023-07-29T14:36:50.403Z,3.58
2023-07-29T14:37:53.993Z,3.63